createdAt,value
2022-10-21T00:00:34.221Z,100550.03
2022-10-21T00:03:00.791Z,100554.22
2022-10-21T00:05:29.910Z,100566.19
2022-10-21T00:07:56.570Z,100569.56
2022-10-21T00:10:23.205Z,100562.94
2022-10-21T00:12:50.161Z,100560.53
2022-10-21T00:15:16.791Z,100549.22
2022-10-21T00:17:43.446Z,100552.63
2022-10-21T00:20:11.183Z,100549.38
2022-10-21T00:22:40.897Z,100553.09
2022-10-21T00:25:08.103Z,100556.66
2022-10-21T00:27:34.843Z,100557.47
2022-10-21T00:30:01.575Z,100552.31
2022-10-21T00:32:30.242Z,100551.03
2022-10-21T00:34:56.974Z,100539.09
2022-10-21T00:37:23.706Z,100545.53
2022-10-21T00:39:51.167Z,100554.56
2022-10-21T00:42:22.059Z,100552.00
2022-10-21T00:45:07.118Z,100539.44
2022-10-21T00:47:39.271Z,100532.94
2022-10-21T00:50:06.329Z,100533.91
2022-10-21T00:52:34.835Z,100541.81
2022-10-21T00:55:04.316Z,100536.22
2022-10-21T00:57:33.328Z,100527.13
2022-10-21T01:00:01.160Z,100536.34
2022-10-21T01:02:28.456Z,100527.63
2022-10-21T01:04:57.596Z,100524.88
2022-10-21T01:07:25.718Z,100511.16
2022-10-21T01:09:52.484Z,100505.19
2022-10-21T01:12:28.780Z,100509.03
2022-10-21T01:14:57.756Z,100502.06
2022-10-21T01:17:45.605Z,100511.97
2022-10-21T01:20:31.376Z,100500.81
2022-10-21T01:23:10.597Z,100504.81
2022-10-21T01:25:50.036Z,100498.19
2022-10-21T01:28:32.274Z,100514.97
2022-10-21T01:31:26.368Z,100503.97
2022-10-21T01:34:02.736Z,100493.34
2022-10-21T01:36:41.331Z,100489.88
2022-10-21T01:39:12.884Z,100478.25
2022-10-21T01:41:44.149Z,100485.50
2022-10-21T01:44:21.681Z,100480.97
2022-10-21T01:46:54.140Z,100466.59
2022-10-21T01:49:32.247Z,100469.69
2022-10-21T01:52:00.132Z,100469.22
2022-10-21T01:54:28.855Z,100478.75
2022-10-21T01:56:55.834Z,100474.50
2022-10-21T01:59:24.508Z,100469.69
2022-10-21T02:01:51.861Z,100455.31
2022-10-21T02:04:18.979Z,100458.88
2022-10-21T02:06:45.586Z,100464.00
2022-10-21T02:09:12.388Z,100464.38
2022-10-21T02:11:39.952Z,100467.75
2022-10-21T02:14:09.671Z,100458.41
2022-10-21T02:16:37.840Z,100457.59
2022-10-21T02:19:06.042Z,100455.38
2022-10-21T02:21:34.582Z,100461.16
2022-10-21T02:24:27.574Z,100461.72
2022-10-21T02:27:09.263Z,100457.50
2022-10-21T02:29:52.540Z,100453.44
2022-10-21T02:32:34.029Z,100454.44
2022-10-21T02:35:24.968Z,100454.44
2022-10-21T02:38:14.736Z,100448.78
2022-10-21T02:41:00.867Z,100452.81
2022-10-21T02:43:54.324Z,100445.41
2022-10-21T02:46:37.787Z,100442.81
2022-10-21T02:49:19.391Z,100450.56
2022-10-21T02:55:06.235Z,100443.81
2022-10-21T02:57:47.794Z,100442.41
2022-10-21T03:00:32.134Z,100438.81
2022-10-21T03:03:14.676Z,100451.75
2022-10-21T03:05:56.415Z,100441.91
2022-10-21T03:08:38.024Z,100452.75
2022-10-21T03:11:19.560Z,100450.84
2022-10-21T03:14:01.511Z,100446.13
2022-10-21T03:16:43.323Z,100446.63
2022-10-21T03:19:24.845Z,100442.75
2022-10-21T03:22:06.339Z,100444.69
2022-10-21T03:24:47.837Z,100455.50
2022-10-21T03:27:29.356Z,100455.88
2022-10-21T03:30:10.957Z,100446.50
2022-10-21T03:32:52.421Z,100443.56
2022-10-21T03:35:33.964Z,100433.25
2022-10-21T03:38:15.446Z,100445.34
2022-10-21T03:40:56.952Z,100450.50
2022-10-21T03:43:38.448Z,100461.00
2022-10-21T03:46:20.006Z,100465.50
2022-10-21T03:49:04.438Z,100450.03
2022-10-21T03:51:48.498Z,100441.03
2022-10-21T03:54:30.000Z,100438.91
2022-10-21T03:57:11.699Z,100451.31
2022-10-21T03:59:53.231Z,100454.06
2022-10-21T04:02:34.749Z,100442.28
2022-10-21T04:05:16.325Z,100435.50
2022-10-21T04:07:57.829Z,100435.50
2022-10-21T04:10:39.307Z,100433.75
2022-10-21T04:13:20.811Z,100439.41
2022-10-21T04:16:04.751Z,100426.50
2022-10-21T04:18:47.683Z,100426.81
2022-10-21T04:21:29.209Z,100431.66
2022-10-21T04:24:10.701Z,100450.03
2022-10-21T04:26:52.245Z,100458.41
2022-10-21T04:29:33.816Z,100462.97
2022-10-21T04:32:15.354Z,100463.75
2022-10-21T04:34:56.881Z,100462.63
2022-10-21T04:37:40.287Z,100471.66
2022-10-21T04:40:22.499Z,100462.59
2022-10-21T04:43:04.015Z,100459.22
2022-10-21T04:45:49.062Z,100465.81
2022-10-21T04:48:34.348Z,100457.72
2022-10-21T04:51:19.749Z,100461.78
2022-10-21T04:54:05.150Z,100464.84
2022-10-21T04:56:50.210Z,100449.94
2022-10-21T04:59:35.321Z,100451.19
2022-10-21T05:02:23.038Z,100451.84
2022-10-21T05:05:10.727Z,100444.91
2022-10-21T05:07:55.975Z,100449.88
2022-10-21T05:10:41.061Z,100448.53
2022-10-21T05:13:27.560Z,100443.31
2022-10-21T05:16:12.569Z,100442.06
2022-10-21T05:18:57.810Z,100439.47
2022-10-21T05:21:42.971Z,100437.53
2022-10-21T05:24:28.247Z,100435.88
2022-10-21T05:27:33.484Z,100432.31
2022-10-21T05:30:19.261Z,100432.66
2022-10-21T05:33:04.740Z,100442.03
2022-10-21T05:35:56.819Z,100437.19
2022-10-21T05:38:43.483Z,100443.63
2022-10-21T05:41:29.364Z,100447.44
2022-10-21T05:44:15.401Z,100434.00
2022-10-21T05:47:00.445Z,100441.59
2022-10-21T05:49:45.378Z,100437.69
2022-10-21T05:52:30.950Z,100441.25
2022-10-21T05:55:15.969Z,100443.66
2022-10-21T05:58:01.029Z,100435.41
2022-10-21T06:00:47.888Z,100440.16
2022-10-21T06:03:34.963Z,100432.75
2022-10-21T06:06:20.264Z,100425.63
2022-10-21T06:09:05.182Z,100430.59
2022-10-21T06:11:50.143Z,100430.81
2022-10-21T06:14:38.183Z,100442.25
2022-10-21T06:17:23.332Z,100443.22
2022-10-21T06:20:08.750Z,100459.69
2022-10-21T06:22:53.648Z,100455.38
2022-10-21T06:25:39.009Z,100449.94
2022-10-21T06:28:24.314Z,100446.88
2022-10-21T06:31:13.013Z,100446.47
2022-10-21T06:34:00.142Z,100452.06
2022-10-21T06:36:45.159Z,100454.69
2022-10-21T06:39:31.172Z,100448.31
2022-10-21T06:42:16.239Z,100437.88
2022-10-21T06:45:06.497Z,100443.16
2022-10-21T06:47:52.135Z,100435.16
2022-10-21T06:50:37.963Z,100437.44
2022-10-21T06:53:29.385Z,100442.84
2022-10-21T06:56:16.693Z,100442.84
2022-10-21T06:59:01.917Z,100438.66
2022-10-21T07:01:59.651Z,100435.91
2022-10-21T07:04:48.937Z,100442.84
2022-10-21T07:07:34.540Z,100441.81
2022-10-21T07:10:19.873Z,100438.88
2022-10-21T07:13:04.791Z,100449.16
2022-10-21T07:16:02.823Z,100452.56
2022-10-21T07:18:48.503Z,100450.53
2022-10-21T07:21:33.804Z,100453.84
2022-10-21T07:24:22.498Z,100451.38
2022-10-21T07:27:08.046Z,100457.81
2022-10-21T07:29:53.195Z,100457.09
2022-10-21T07:32:38.146Z,100449.22
2022-10-21T07:35:23.545Z,100444.75
2022-10-21T07:38:09.014Z,100433.22
2022-10-21T07:40:54.171Z,100431.72
2022-10-21T07:43:39.291Z,100425.91
2022-10-21T07:46:25.013Z,100429.44
2022-10-21T07:49:11.108Z,100418.41
2022-10-21T07:51:55.969Z,100406.78
2022-10-21T07:54:41.120Z,100425.72
2022-10-21T07:57:29.046Z,100418.63
2022-10-21T08:00:14.238Z,100414.75
2022-10-21T08:02:59.544Z,100407.81
2022-10-21T08:05:44.546Z,100397.84
2022-10-21T08:08:30.846Z,100395.69
2022-10-21T08:11:26.707Z,100393.50
2022-10-21T08:14:11.913Z,100391.34
2022-10-21T08:16:56.973Z,100397.59
2022-10-21T08:19:42.414Z,100385.16
2022-10-21T08:22:27.410Z,100394.41
2022-10-21T08:25:16.710Z,100390.81
2022-10-21T08:28:01.958Z,100390.06
2022-10-21T08:30:47.109Z,100380.19
2022-10-21T08:33:32.255Z,100373.88
2022-10-21T08:36:22.136Z,100372.69
2022-10-21T08:39:10.024Z,100370.84
2022-10-21T08:41:55.801Z,100357.63
2022-10-21T08:44:40.741Z,100369.06
2022-10-21T08:47:31.329Z,100387.03
2022-10-21T08:50:20.767Z,100386.94
2022-10-21T08:53:12.120Z,100394.00
2022-10-21T08:56:19.850Z,100383.25
2022-10-21T08:59:10.530Z,100382.91
2022-10-21T09:02:02.668Z,100377.47
2022-10-21T09:04:53.906Z,100365.47
2022-10-21T09:07:51.658Z,100363.06
2022-10-21T09:10:45.854Z,100360.69
2022-10-21T09:13:51.382Z,100365.88
2022-10-21T09:16:55.446Z,100363.13
2022-10-21T09:19:47.315Z,100357.72
2022-10-21T09:22:38.342Z,100358.31
2022-10-21T09:25:42.194Z,100347.91
2022-10-21T09:28:13.884Z,100349.94
2022-10-21T09:30:41.493Z,100349.34
2022-10-21T09:33:12.125Z,100360.34
2022-10-21T09:35:44.678Z,100351.56
2022-10-21T09:38:46.617Z,100347.16
2022-10-21T09:41:15.202Z,100362.41
2022-10-21T09:43:43.334Z,100348.81
2022-10-21T09:46:14.104Z,100346.44
2022-10-21T09:49:16.324Z,100341.19
2022-10-21T09:51:34.223Z,100338.16
2022-10-21T09:54:07.796Z,100337.16
2022-10-21T09:56:36.155Z,100337.28
2022-10-21T09:59:07.330Z,100337.53
2022-10-21T10:01:35.816Z,100347.59
2022-10-21T10:04:09.686Z,100345.22
2022-10-21T10:06:43.617Z,100341.22
2022-10-21T10:09:15.487Z,100337.66
2022-10-21T10:11:49.046Z,100321.44
2022-10-21T10:14:23.125Z,100310.69
2022-10-21T10:16:49.746Z,100301.31
2022-10-21T10:19:24.261Z,100299.13
2022-10-21T10:22:10.479Z,100268.72
2022-10-21T10:24:40.663Z,100261.16
2022-10-21T10:27:23.511Z,100281.78
2022-10-21T10:29:53.420Z,100245.78
2022-10-21T10:32:22.825Z,100240.19
2022-10-21T10:34:53.922Z,100254.63
2022-10-21T10:37:25.023Z,100250.59
2022-10-21T10:39:54.171Z,100237.78
2022-10-21T10:42:25.171Z,100242.41
2022-10-21T10:44:53.389Z,100239.41
2022-10-21T10:47:24.426Z,100241.38
2022-10-21T10:49:51.379Z,100252.41
2022-10-21T10:52:21.429Z,100260.59
2022-10-21T10:54:48.775Z,100256.22
2022-10-21T10:57:17.503Z,100239.00
2022-10-21T10:59:48.709Z,100231.19
2022-10-21T11:02:19.550Z,100238.41
2022-10-21T11:05:03.432Z,100225.41
2022-10-21T11:07:35.357Z,100236.59
2022-10-21T11:10:04.395Z,100231.78
2022-10-21T11:12:31.867Z,100221.78
2022-10-21T11:14:59.007Z,100226.38
2022-10-21T11:17:30.828Z,100204.00
2022-10-21T11:20:04.251Z,100215.81
2022-10-21T11:22:30.821Z,100233.78
2022-10-21T11:25:02.509Z,100235.03
2022-10-21T11:27:41.951Z,100224.59
2022-10-21T11:30:22.232Z,100215.03
2022-10-21T11:32:48.814Z,100211.00
2022-10-21T11:35:16.952Z,100207.22
2022-10-21T11:37:54.287Z,100197.41
2022-10-21T11:40:33.707Z,100190.97
2022-10-21T11:43:20.837Z,100193.56
2022-10-21T11:46:04.227Z,100192.59
2022-10-21T11:48:35.528Z,100183.75
2022-10-21T11:51:14.185Z,100176.38
2022-10-21T11:53:55.459Z,100178.97
2022-10-21T11:56:29.480Z,100178.97
2022-10-21T11:59:04.472Z,100191.16
2022-10-21T12:01:31.013Z,100171.97
2022-10-21T12:03:57.533Z,100175.00
2022-10-21T12:06:43.235Z,100155.34
2022-10-21T12:09:15.759Z,100160.34
2022-10-21T12:11:55.531Z,100169.56
2022-10-21T12:14:31.329Z,100160.31
2022-10-21T12:17:00.959Z,100156.09
2022-10-21T12:19:27.960Z,100143.03
2022-10-21T12:21:54.588Z,100129.34
2022-10-21T12:24:21.266Z,100140.69
2022-10-21T12:27:03.699Z,100144.69
2022-10-21T12:29:49.117Z,100134.41
2022-10-21T12:32:34.416Z,100135.38
2022-10-21T12:35:01.867Z,100128.97
2022-10-21T12:37:43.597Z,100135.78
2022-10-21T12:40:33.256Z,100126.16
2022-10-21T12:43:01.342Z,100115.94
2022-10-21T12:45:29.385Z,100109.28
2022-10-21T12:47:56.253Z,100115.00
2022-10-21T12:50:26.185Z,100104.25
2022-10-21T12:53:17.108Z,100102.69
2022-10-21T12:55:48.869Z,100087.09
2022-10-21T12:58:30.458Z,100085.34
2022-10-21T13:00:58.242Z,100082.69
2022-10-21T13:03:43.749Z,100082.69
2022-10-21T13:06:10.488Z,100089.44
2022-10-21T13:08:38.513Z,100084.69
2022-10-21T13:11:05.420Z,100093.09
2022-10-21T13:13:37.524Z,100085.28
2022-10-21T13:16:19.667Z,100079.25
2022-10-21T13:18:55.582Z,100089.00
2022-10-21T13:21:41.659Z,100082.25
2022-10-21T13:24:11.066Z,100084.69
2022-10-21T13:26:40.417Z,100090.31
2022-10-21T13:29:18.191Z,100091.56
2022-10-21T13:31:44.935Z,100101.59
2022-10-21T13:34:30.817Z,100097.19
2022-10-21T13:36:57.667Z,100086.19
2022-10-21T13:39:24.489Z,100090.41
2022-10-21T13:42:00.032Z,100087.59
2022-10-21T13:44:30.573Z,100091.97
2022-10-21T13:46:58.542Z,100082.13
2022-10-21T13:49:28.717Z,100087.66
2022-10-21T13:51:55.394Z,100079.91
2022-10-21T13:54:23.478Z,100062.84
2022-10-21T13:56:50.257Z,100076.66
2022-10-21T13:59:27.506Z,100063.63
2022-10-21T14:01:55.388Z,100063.34
2022-10-21T14:04:23.137Z,100060.34
2022-10-21T14:06:54.025Z,100052.88
2022-10-21T14:09:29.001Z,100048.75
2022-10-21T14:12:00.545Z,100046.13
2022-10-21T14:14:28.431Z,100069.16
2022-10-21T14:16:56.626Z,100067.56
2022-10-21T14:19:26.427Z,100071.00
2022-10-21T14:21:54.705Z,100067.78
2022-10-21T14:24:21.304Z,100074.25
2022-10-21T14:26:47.917Z,100069.84
2022-10-21T14:29:14.734Z,100067.44
2022-10-21T14:31:44.242Z,100051.81
2022-10-21T14:34:23.530Z,100055.84
2022-10-21T14:37:19.631Z,100058.09
2022-10-21T14:39:46.313Z,100062.09
2022-10-21T14:42:14.799Z,100049.13
2022-10-21T14:44:42.558Z,100051.13
2022-10-21T14:47:17.037Z,100048.34
2022-10-21T14:49:47.902Z,100069.56
2022-10-21T14:52:18.849Z,100074.78
2022-10-21T14:54:52.838Z,100064.03
2022-10-21T14:57:34.231Z,100077.38
2022-10-21T15:00:03.421Z,100072.97
2022-10-21T15:02:34.362Z,100074.78
2022-10-21T15:05:25.645Z,100063.63
2022-10-21T15:07:52.260Z,100072.81
2022-10-21T15:10:20.120Z,100074.44
2022-10-21T15:12:51.375Z,100070.84
2022-10-21T15:15:39.217Z,100072.22
2022-10-21T15:18:14.332Z,100068.84
2022-10-21T15:20:59.720Z,100062.47
2022-10-21T15:23:29.142Z,100070.13
2022-10-21T15:25:56.980Z,100060.13
2022-10-21T15:28:23.821Z,100061.78
2022-10-21T15:30:52.278Z,100065.81
2022-10-21T15:33:18.904Z,100057.00
2022-10-21T15:35:45.431Z,100070.00
2022-10-21T15:38:12.085Z,100070.41
2022-10-21T15:40:39.066Z,100070.59
2022-10-21T15:43:10.240Z,100059.81
2022-10-21T15:45:36.839Z,100049.03
2022-10-21T15:48:06.122Z,100064.00
2022-10-21T15:50:32.719Z,100070.44
2022-10-21T15:52:59.346Z,100073.81
2022-10-21T15:55:25.912Z,100070.59
2022-10-21T15:57:52.482Z,100072.22
2022-10-21T16:00:22.731Z,100073.81
2022-10-21T16:02:51.583Z,100069.03
2022-10-21T16:05:18.792Z,100077.81
2022-10-21T16:07:45.491Z,100096.00
2022-10-21T16:10:19.966Z,100106.66
2022-10-21T16:12:46.720Z,100111.41
2022-10-21T16:15:13.935Z,100119.81
2022-10-21T16:17:43.254Z,100122.25
2022-10-21T16:22:39.369Z,100127.41
2022-10-21T16:25:06.367Z,100128.81
2022-10-21T16:27:43.691Z,100133.81
2022-10-21T16:30:19.345Z,100128.19
2022-10-21T16:32:46.378Z,100132.41
2022-10-21T16:35:13.586Z,100124.41
2022-10-21T16:37:40.646Z,100131.41
2022-10-21T16:40:16.668Z,100125.81
2022-10-21T16:42:43.383Z,100130.25
2022-10-21T16:45:10.271Z,100133.00
2022-10-21T16:47:37.212Z,100132.22
2022-10-21T16:50:04.613Z,100135.00
2022-10-21T16:52:33.561Z,100138.59
2022-10-21T16:55:00.303Z,100136.63
2022-10-21T16:57:26.895Z,100137.03
2022-10-21T16:59:53.518Z,100145.03
2022-10-21T17:02:20.606Z,100151.81
2022-10-21T17:04:47.311Z,100144.63
2022-10-21T17:07:14.063Z,100151.03
2022-10-21T17:09:40.743Z,100155.00
2022-10-21T17:12:09.982Z,100149.59
2022-10-21T17:14:36.593Z,100144.59
2022-10-21T17:17:03.157Z,100129.03
2022-10-21T17:19:29.805Z,100128.63
2022-10-21T17:21:56.498Z,100132.22
2022-10-21T17:24:23.126Z,100130.25
2022-10-21T17:26:49.754Z,100133.81
2022-10-21T17:29:16.407Z,100125.63
2022-10-21T17:31:43.336Z,100123.81
2022-10-21T17:34:18.625Z,100119.25
2022-10-21T17:36:45.259Z,100119.81
2022-10-21T17:39:11.961Z,100120.22
2022-10-21T17:41:38.687Z,100129.81
2022-10-21T17:44:05.414Z,100130.41
2022-10-21T17:46:32.035Z,100134.22
2022-10-21T17:48:58.604Z,100134.19
2022-10-21T17:51:25.766Z,100135.81
2022-10-21T17:53:53.347Z,100134.38
2022-10-21T17:56:20.193Z,100135.19
2022-10-21T17:58:50.722Z,100126.41
2022-10-21T18:01:18.534Z,100129.38
2022-10-21T18:03:45.453Z,100125.03
2022-10-21T18:06:12.770Z,100127.81
2022-10-21T18:08:39.431Z,100122.38
2022-10-21T18:11:07.234Z,100125.41
2022-10-21T18:13:36.364Z,100133.19
2022-10-21T18:16:07.725Z,100137.00
2022-10-21T18:18:34.426Z,100138.41
2022-10-21T18:21:05.048Z,100127.81
2022-10-21T18:23:31.824Z,100129.97
2022-10-21T18:26:05.596Z,100125.78
2022-10-21T18:28:32.996Z,100116.63
2022-10-21T18:31:00.438Z,100107.78
2022-10-21T18:33:27.618Z,100104.97
2022-10-21T18:35:54.278Z,100096.59
2022-10-21T18:38:20.933Z,100087.81
2022-10-21T18:40:56.305Z,100088.63
2022-10-21T18:43:23.145Z,100097.78
2022-10-21T18:45:49.800Z,100096.59
2022-10-21T18:48:16.500Z,100096.16
2022-10-21T18:50:43.237Z,100078.63
2022-10-21T18:53:09.967Z,100080.59
2022-10-21T18:55:39.198Z,100087.00
2022-10-21T18:58:05.776Z,100090.22
2022-10-21T19:00:32.779Z,100089.63
2022-10-21T19:02:59.342Z,100089.41
2022-10-21T19:05:25.917Z,100096.97
2022-10-21T19:07:53.458Z,100089.41
2022-10-21T19:10:20.329Z,100080.59
2022-10-21T19:12:46.906Z,100099.41
2022-10-21T19:15:13.500Z,100101.81
2022-10-21T19:17:41.987Z,100095.78
2022-10-21T19:20:09.129Z,100102.38
2022-10-21T19:22:35.695Z,100098.59
2022-10-21T19:25:02.388Z,100100.19
2022-10-21T19:27:29.539Z,100098.19
2022-10-21T19:29:57.256Z,100107.19
2022-10-21T19:32:23.905Z,100103.38
2022-10-21T19:34:50.589Z,100106.63
2022-10-21T19:37:17.151Z,100124.97
2022-10-21T19:39:43.761Z,100124.97
2022-10-21T19:42:10.301Z,100125.38
2022-10-21T19:44:36.994Z,100120.97
2022-10-21T19:47:03.724Z,100119.59
2022-10-21T19:49:30.314Z,100108.78
2022-10-21T19:51:57.185Z,100116.00
2022-10-21T19:54:23.703Z,100112.97
2022-10-21T19:56:50.255Z,100108.78
2022-10-21T20:01:44.458Z,100127.38
2022-10-21T20:04:11.267Z,100124.34
2022-10-21T20:06:38.993Z,100129.97
2022-10-21T20:09:10.289Z,100124.16
2022-10-21T20:11:37.325Z,100121.56
2022-10-21T20:14:04.376Z,100128.56
2022-10-21T20:16:35.580Z,100127.75
2022-10-21T20:19:02.531Z,100120.16
2022-10-21T20:21:30.265Z,100121.75
2022-10-21T20:23:57.004Z,100129.19
2022-10-21T20:26:24.106Z,100120.34
2022-10-21T20:28:50.991Z,100124.94
2022-10-21T20:31:22.185Z,100121.75
2022-10-21T20:33:51.737Z,100121.38
2022-10-21T20:36:20.473Z,100130.94
2022-10-21T20:38:47.526Z,100134.34
2022-10-21T20:41:22.300Z,100126.94
2022-10-21T20:43:50.235Z,100122.75
2022-10-21T20:46:17.474Z,100130.94
2022-10-21T20:48:45.805Z,100125.34
2022-10-21T20:51:13.977Z,100119.75
2022-10-21T20:53:44.632Z,100123.72
2022-10-21T20:56:11.374Z,100119.75
2022-10-21T20:58:40.693Z,100116.13
2022-10-21T21:01:18.311Z,100113.75
2022-10-21T21:03:45.508Z,100113.31
2022-10-21T21:06:12.570Z,100115.72
2022-10-21T21:08:48.663Z,100117.31
2022-10-21T21:11:21.487Z,100116.09
2022-10-21T21:13:48.210Z,100107.94
2022-10-21T21:16:16.431Z,100098.53
2022-10-21T21:18:44.675Z,100097.94
2022-10-21T21:21:13.117Z,100103.31
2022-10-21T21:23:40.776Z,100100.94
2022-10-21T21:26:09.237Z,100104.91
2022-10-21T21:28:36.521Z,100098.13
2022-10-21T21:31:03.668Z,100098.53
2022-10-21T21:33:30.410Z,100092.34
2022-10-21T21:35:57.337Z,100086.16
2022-10-21T21:38:25.770Z,100083.31
2022-10-21T21:40:52.881Z,100086.53
2022-10-21T21:43:19.459Z,100075.00
2022-10-21T21:45:46.792Z,100070.59
2022-10-21T21:48:17.619Z,100063.38
2022-10-21T21:50:44.277Z,100067.84
2022-10-21T21:53:11.910Z,100063.59
2022-10-21T21:55:38.737Z,100064.59
2022-10-21T21:58:05.856Z,100065.00
2022-10-21T22:00:32.741Z,100066.63
2022-10-21T22:02:59.529Z,100062.84
2022-10-21T22:05:27.150Z,100067.22
2022-10-21T22:07:53.851Z,100067.22
2022-10-21T22:10:20.488Z,100059.25
2022-10-21T22:12:47.070Z,100059.81
2022-10-21T22:15:29.627Z,100057.22
2022-10-21T22:18:00.619Z,100057.44
2022-10-21T22:20:27.202Z,100059.44
2022-10-21T22:22:53.958Z,100058.03
2022-10-21T22:25:20.502Z,100042.66
2022-10-21T22:27:47.131Z,100048.44
2022-10-21T22:30:14.523Z,100052.84
2022-10-21T22:32:41.305Z,100042.88
2022-10-21T22:35:08.545Z,100054.25
2022-10-21T22:37:35.604Z,100062.06
2022-10-21T22:40:02.630Z,100068.66
2022-10-21T22:42:29.294Z,100065.63
2022-10-21T22:44:55.891Z,100060.25
2022-10-21T22:47:23.499Z,100051.28
2022-10-21T22:49:50.763Z,100045.47
2022-10-21T22:52:17.728Z,100047.88
2022-10-21T22:54:49.560Z,100045.47
2022-10-21T22:57:17.343Z,100051.84
2022-10-21T22:59:44.467Z,100051.84
2022-10-21T23:02:12.312Z,100050.25
2022-10-21T23:04:38.871Z,100056.66
2022-10-21T23:07:11.370Z,100054.69
2022-10-21T23:09:38.379Z,100051.81
2022-10-21T23:12:05.074Z,100053.84
2022-10-21T23:14:31.640Z,100054.63
2022-10-21T23:16:58.281Z,100060.59
2022-10-21T23:19:24.813Z,100045.44
2022-10-21T23:21:51.363Z,100047.00
2022-10-21T23:24:17.901Z,100043.41
2022-10-21T23:26:44.473Z,100042.63
2022-10-21T23:29:11.086Z,100048.97
2022-10-21T23:31:37.643Z,100053.38
2022-10-21T23:34:06.024Z,100046.38
2022-10-21T23:36:33.439Z,100051.78
2022-10-21T23:39:00.087Z,100046.97
2022-10-21T23:41:26.655Z,100055.75
2022-10-21T23:43:53.216Z,100059.94
2022-10-21T23:46:20.123Z,100056.97
2022-10-21T23:48:47.228Z,100059.34
2022-10-21T23:51:13.996Z,100061.16
2022-10-21T23:53:41.181Z,100063.38
2022-10-21T23:56:07.957Z,100064.16
2022-10-21T23:58:34.975Z,100048.59
